This is the latest recevied weather packets stored in our database for station/object YO9FTR-10. If no packets are shown the sender has not sent any weather packets the latest 10 day(s).
| Time | Temp. | Humidity | Pressure | Rain* | Wind** | Luminosity | Snow |
|---|---|---|---|---|---|---|---|
| 1777501490 | 5.56° C | 63% | 1025.3 hPa | - | - | - | - |
| 1777500588 | 5.56° C | 65% | 1025.4 hPa | - | - | - | - |
| 1777499685 | 5.56° C | 61% | 1025.2 hPa | - | - | - | - |
| 1777498782 | 6.11° C | 61% | 1025.2 hPa | - | - | - | - |
| 1777497880 | 6.11° C | 60% | 1025.3 hPa | - | - | - | - |
| 1777496976 | 6.11° C | 62% | 1025.3 hPa | - | - | - | - |
| 1777496073 | 6.11° C | 68% | 1025.2 hPa | - | - | - | - |
| 1777495170 | 6.67° C | 66% | 1025.1 hPa | - | - | - | - |
| 1777494268 | 6.67° C | 68% | 1025 hPa | - | - | - | - |
| 1777493365 | 6.67° C | 67% | 1024.9 hPa | - | - | - | - |
| 1777492462 | 6.67° C | 70% | 1024.6 hPa | - | - | - | - |
| 1777491560 | 6.67° C | 68% | 1024.5 hPa | - | - | - | - |
| 1777490656 | 6.67° C | 67% | 1024.4 hPa | - | - | - | - |
| 1777489753 | 7.22° C | 65% | 1024.5 hPa | - | - | - | - |
| 1777488850 | 7.22° C | 62% | 1024.4 hPa | - | - | - | - |
| 1777487948 | 7.22° C | 62% | 1024.4 hPa | - | - | - | - |
| 1777487045 | 6.67° C | 70% | 1024.4 hPa | - | - | - | - |
| 1777486142 | 7.22° C | 68% | 1024.3 hPa | - | - | - | - |
| 1777485239 | 7.22° C | 70% | 1024 hPa | - | - | - | - |
| 1777484336 | 7.22° C | 68% | 1023.9 hPa | - | - | - | - |
| 1777483433 | 7.22° C | 65% | 1023.8 hPa | - | - | - | - |
| 1777482530 | 7.78° C | 63% | 1023.4 hPa | - | - | - | - |
| 1777481628 | 7.78° C | 65% | 1023.5 hPa | - | - | - | - |
| 1777480725 | 7.78° C | 68% | 1023.4 hPa | - | - | - | - |
| 1777479822 | 7.78° C | 68% | 1023.2 hPa | - | - | - | - |
* Rain since midnight (hover to see other rain measurements)
** Current wind speed in m/s (hover to see current wind gust speed)